sensor_id;sensor_type;location;lat;lon;timestamp;P1;P2;P0
54553;PMS5003;40450;55.848;-3.572;2022-11-20T00:01:09;5;5;
54553;PMS5003;40450;55.848;-3.572;2022-11-20T00:03:38;6;6;
54553;PMS5003;40450;55.848;-3.572;2022-11-20T00:06:10;5;5;
54553;PMS5003;40450;55.848;-3.572;2022-11-20T00:08:39;5;4;
54553;PMS5003;40450;55.848;-3.572;2022-11-20T00:11:10;4;4;
54553;PMS5003;40450;55.848;-3.572;2022-11-20T00:13:40;5;5;
54553;PMS5003;40450;55.848;-3.572;2022-11-20T00:16:10;4;4;
54553;PMS5003;40450;55.848;-3.572;2022-11-20T00:18:40;6;4;
54553;PMS5003;40450;55.848;-3.572;2022-11-20T00:21:11;5;5;
54553;PMS5003;40450;55.848;-3.572;2022-11-20T00:23:42;5;5;
54553;PMS5003;40450;55.848;-3.572;2022-11-20T00:26:12;5;5;
54553;PMS5003;40450;55.848;-3.572;2022-11-20T00:28:43;10;5;
54553;PMS5003;40450;55.848;-3.572;2022-11-20T00:31:14;4;2;
54553;PMS5003;40450;55.848;-3.572;2022-11-20T00:33:44;4;4;
54553;PMS5003;40450;55.848;-3.572;2022-11-20T00:36:15;4;4;
54553;PMS5003;40450;55.848;-3.572;2022-11-20T00:38:45;4;4;
54553;PMS5003;40450;55.848;-3.572;2022-11-20T00:41:15;5;5;
54553;PMS5003;40450;55.848;-3.572;2022-11-20T00:43:45;5;4;
54553;PMS5003;40450;55.848;-3.572;2022-11-20T00:46:16;5;3;
54553;PMS5003;40450;55.848;-3.572;2022-11-20T00:48:47;5;3;
54553;PMS5003;40450;55.848;-3.572;2022-11-20T00:51:17;5;5;
54553;PMS5003;40450;55.848;-3.572;2022-11-20T00:53:47;5;3;
54553;PMS5003;40450;55.848;-3.572;2022-11-20T00:56:18;6;6;
54553;PMS5003;40450;55.848;-3.572;2022-11-20T00:58:48;3;3;
54553;PMS5003;40450;55.848;-3.572;2022-11-20T01:01:19;3;2;
54553;PMS5003;40450;55.848;-3.572;2022-11-20T01:03:49;3;3;
54553;PMS5003;40450;55.848;-3.572;2022-11-20T01:06:20;2;2;
54553;PMS5003;40450;55.848;-3.572;2022-11-20T01:08:50;3;3;
54553;PMS5003;40450;55.848;-3.572;2022-11-20T01:11:21;3;3;
54553;PMS5003;40450;55.848;-3.572;2022-11-20T01:13:51;4;3;
54553;PMS5003;40450;55.848;-3.572;2022-11-20T01:16:21;4;4;
54553;PMS5003;40450;55.848;-3.572;2022-11-20T01:18:52;2;2;
54553;PMS5003;40450;55.848;-3.572;2022-11-20T01:21:22;3;2;
54553;PMS5003;40450;55.848;-3.572;2022-11-20T01:23:52;2;2;
54553;PMS5003;40450;55.848;-3.572;2022-11-20T01:26:23;4;4;
54553;PMS5003;40450;55.848;-3.572;2022-11-20T01:28:53;4;3;
54553;PMS5003;40450;55.848;-3.572;2022-11-20T01:31:23;5;2;
54553;PMS5003;40450;55.848;-3.572;2022-11-20T01:33:54;3;3;
54553;PMS5003;40450;55.848;-3.572;2022-11-20T01:36:25;2;2;
54553;PMS5003;40450;55.848;-3.572;2022-11-20T01:38:55;3;3;
54553;PMS5003;40450;55.848;-3.572;2022-11-20T01:41:25;2;2;
54553;PMS5003;40450;55.848;-3.572;2022-11-20T01:43:55;3;3;
54553;PMS5003;40450;55.848;-3.572;2022-11-20T01:46:26;6;4;
54553;PMS5003;40450;55.848;-3.572;2022-11-20T01:48:57;4;4;
54553;PMS5003;40450;55.848;-3.572;2022-11-20T01:51:27;4;3;
54553;PMS5003;40450;55.848;-3.572;2022-11-20T01:53:58;5;5;
54553;PMS5003;40450;55.848;-3.572;2022-11-20T01:56:27;4;4;
54553;PMS5003;40450;55.848;-3.572;2022-11-20T01:58:58;5;5;
54553;PMS5003;40450;55.848;-3.572;2022-11-20T02:01:28;4;4;
54553;PMS5003;40450;55.848;-3.572;2022-11-20T02:03:59;4;4;
54553;PMS5003;40450;55.848;-3.572;2022-11-20T02:06:30;10;8;
54553;PMS5003;40450;55.848;-3.572;2022-11-20T02:09:00;4;4;
54553;PMS5003;40450;55.848;-3.572;2022-11-20T02:11:31;4;4;
54553;PMS5003;40450;55.848;-3.572;2022-11-20T02:14:01;5;4;
54553;PMS5003;40450;55.848;-3.572;2022-11-20T02:16:33;5;3;
54553;PMS5003;40450;55.848;-3.572;2022-11-20T02:19:02;4;4;
54553;PMS5003;40450;55.848;-3.572;2022-11-20T02:21:34;3;3;
54553;PMS5003;40450;55.848;-3.572;2022-11-20T02:24:03;4;4;
54553;PMS5003;40450;55.848;-3.572;2022-11-20T02:26:34;5;5;
54553;PMS5003;40450;55.848;-3.572;2022-11-20T02:29:04;4;4;
54553;PMS5003;40450;55.848;-3.572;2022-11-20T02:31:36;4;3;
54553;PMS5003;40450;55.848;-3.572;2022-11-20T02:34:04;3;3;
54553;PMS5003;40450;55.848;-3.572;2022-11-20T02:36:35;5;4;
54553;PMS5003;40450;55.848;-3.572;2022-11-20T02:39:05;2;2;
54553;PMS5003;40450;55.848;-3.572;2022-11-20T02:41:36;3;3;
54553;PMS5003;40450;55.848;-3.572;2022-11-20T02:44:06;4;4;
54553;PMS5003;40450;55.848;-3.572;2022-11-20T02:46:37;2;2;
54553;PMS5003;40450;55.848;-3.572;2022-11-20T02:49:07;2;2;
54553;PMS5003;40450;55.848;-3.572;2022-11-20T02:51:37;3;3;
54553;PMS5003;40450;55.848;-3.572;2022-11-20T02:54:08;3;3;
54553;PMS5003;40450;55.848;-3.572;2022-11-20T02:56:38;3;3;
54553;PMS5003;40450;55.848;-3.572;2022-11-20T02:59:09;5;3;
54553;PMS5003;40450;55.848;-3.572;2022-11-20T03:01:39;4;4;
54553;PMS5003;40450;55.848;-3.572;2022-11-20T03:04:10;3;3;
54553;PMS5003;40450;55.848;-3.572;2022-11-20T03:06:40;5;4;
54553;PMS5003;40450;55.848;-3.572;2022-11-20T03:09:11;3;3;
54553;PMS5003;40450;55.848;-3.572;2022-11-20T03:11:41;5;3;
54553;PMS5003;40450;55.848;-3.572;2022-11-20T03:14:11;3;3;
54553;PMS5003;40450;55.848;-3.572;2022-11-20T03:16:42;2;2;
54553;PMS5003;40450;55.848;-3.572;2022-11-20T03:19:12;5;3;
54553;PMS5003;40450;55.848;-3.572;2022-11-20T03:21:43;4;4;
54553;PMS5003;40450;55.848;-3.572;2022-11-20T03:24:13;4;4;
54553;PMS5003;40450;55.848;-3.572;2022-11-20T03:26:43;5;4;
54553;PMS5003;40450;55.848;-3.572;2022-11-20T03:29:14;4;3;
54553;PMS5003;40450;55.848;-3.572;2022-11-20T03:31:44;4;3;
54553;PMS5003;40450;55.848;-3.572;2022-11-20T03:34:15;2;2;
54553;PMS5003;40450;55.848;-3.572;2022-11-20T03:36:45;4;4;
54553;PMS5003;40450;55.848;-3.572;2022-11-20T03:39:16;3;3;
54553;PMS5003;40450;55.848;-3.572;2022-11-20T03:41:46;3;3;
54553;PMS5003;40450;55.848;-3.572;2022-11-20T03:44:16;6;4;
54553;PMS5003;40450;55.848;-3.572;2022-11-20T03:46:47;4;3;
54553;PMS5003;40450;55.848;-3.572;2022-11-20T03:49:17;2;2;
54553;PMS5003;40450;55.848;-3.572;2022-11-20T03:51:48;5;5;
54553;PMS5003;40450;55.848;-3.572;2022-11-20T03:54:23;4;3;
54553;PMS5003;40450;55.848;-3.572;2022-11-20T03:56:49;3;3;
54553;PMS5003;40450;55.848;-3.572;2022-11-20T03:59:19;3;3;
54553;PMS5003;40450;55.848;-3.572;2022-11-20T04:01:49;4;2;
54553;PMS5003;40450;55.848;-3.572;2022-11-20T04:04:20;3;3;
54553;PMS5003;40450;55.848;-3.572;2022-11-20T04:06:50;3;3;
54553;PMS5003;40450;55.848;-3.572;2022-11-20T04:09:21;3;2;
54553;PMS5003;40450;55.848;-3.572;2022-11-20T04:11:51;3;3;
54553;PMS5003;40450;55.848;-3.572;2022-11-20T04:14:22;3;3;
54553;PMS5003;40450;55.848;-3.572;2022-11-20T04:16:52;5;4;
54553;PMS5003;40450;55.848;-3.572;2022-11-20T04:19:22;3;3;
54553;PMS5003;40450;55.848;-3.572;2022-11-20T04:21:53;3;3;
54553;PMS5003;40450;55.848;-3.572;2022-11-20T04:24:23;4;3;
54553;PMS5003;40450;55.848;-3.572;2022-11-20T04:26:54;2;2;
54553;PMS5003;40450;55.848;-3.572;2022-11-20T04:29:24;2;2;
54553;PMS5003;40450;55.848;-3.572;2022-11-20T04:31:55;2;2;
54553;PMS5003;40450;55.848;-3.572;2022-11-20T04:34:25;2;2;
54553;PMS5003;40450;55.848;-3.572;2022-11-20T04:36:55;3;3;
54553;PMS5003;40450;55.848;-3.572;2022-11-20T04:39:26;1;1;
54553;PMS5003;40450;55.848;-3.572;2022-11-20T04:41:56;2;2;
54553;PMS5003;40450;55.848;-3.572;2022-11-20T04:44:27;2;2;
54553;PMS5003;40450;55.848;-3.572;2022-11-20T04:46:57;3;3;
54553;PMS5003;40450;55.848;-3.572;2022-11-20T04:49:27;1;1;
54553;PMS5003;40450;55.848;-3.572;2022-11-20T04:51:58;1;1;
54553;PMS5003;40450;55.848;-3.572;2022-11-20T04:54:28;1;1;
54553;PMS5003;40450;55.848;-3.572;2022-11-20T04:56:59;4;4;
54553;PMS5003;40450;55.848;-3.572;2022-11-20T04:59:29;2;2;
54553;PMS5003;40450;55.848;-3.572;2022-11-20T05:01:59;2;2;
54553;PMS5003;40450;55.848;-3.572;2022-11-20T05:04:30;1;1;
54553;PMS5003;40450;55.848;-3.572;2022-11-20T05:07:00;2;2;
54553;PMS5003;40450;55.848;-3.572;2022-11-20T05:09:31;1;1;
54553;PMS5003;40450;55.848;-3.572;2022-11-20T05:12:01;1;1;
54553;PMS5003;40450;55.848;-3.572;2022-11-20T05:14:31;1;1;
54553;PMS5003;40450;55.848;-3.572;2022-11-20T05:17:02;2;2;
54553;PMS5003;40450;55.848;-3.572;2022-11-20T05:19:32;2;1;
54553;PMS5003;40450;55.848;-3.572;2022-11-20T05:22:04;2;1;
54553;PMS5003;40450;55.848;-3.572;2022-11-20T05:24:33;0;0;
54553;PMS5003;40450;55.848;-3.572;2022-11-20T05:27:04;0;0;
54553;PMS5003;40450;55.848;-3.572;2022-11-20T05:29:34;0;0;
54553;PMS5003;40450;55.848;-3.572;2022-11-20T05:32:05;2;2;
54553;PMS5003;40450;55.848;-3.572;2022-11-20T05:34:35;1;1;
54553;PMS5003;40450;55.848;-3.572;2022-11-20T05:37:05;0;0;
54553;PMS5003;40450;55.848;-3.572;2022-11-20T05:39:36;2;2;
54553;PMS5003;40450;55.848;-3.572;2022-11-20T05:42:06;0;0;
54553;PMS5003;40450;55.848;-3.572;2022-11-20T05:44:37;0;0;
54553;PMS5003;40450;55.848;-3.572;2022-11-20T05:47:07;1;1;
54553;PMS5003;40450;55.848;-3.572;2022-11-20T05:49:37;1;1;
54553;PMS5003;40450;55.848;-3.572;2022-11-20T05:52:08;2;0;
54553;PMS5003;40450;55.848;-3.572;2022-11-20T05:54:38;1;1;
54553;PMS5003;40450;55.848;-3.572;2022-11-20T05:57:09;1;1;
54553;PMS5003;40450;55.848;-3.572;2022-11-20T05:59:39;1;1;
54553;PMS5003;40450;55.848;-3.572;2022-11-20T06:02:10;0;0;
54553;PMS5003;40450;55.848;-3.572;2022-11-20T06:04:40;1;1;
54553;PMS5003;40450;55.848;-3.572;2022-11-20T06:07:11;1;1;
54553;PMS5003;40450;55.848;-3.572;2022-11-20T06:09:41;0;0;
54553;PMS5003;40450;55.848;-3.572;2022-11-20T06:12:11;1;1;
54553;PMS5003;40450;55.848;-3.572;2022-11-20T06:14:42;2;2;
54553;PMS5003;40450;55.848;-3.572;2022-11-20T06:17:13;2;2;
54553;PMS5003;40450;55.848;-3.572;2022-11-20T06:19:43;1;1;
54553;PMS5003;40450;55.848;-3.572;2022-11-20T06:22:13;3;2;
54553;PMS5003;40450;55.848;-3.572;2022-11-20T06:24:43;1;1;
54553;PMS5003;40450;55.848;-3.572;2022-11-20T06:27:15;2;2;
54553;PMS5003;40450;55.848;-3.572;2022-11-20T06:29:44;2;2;
54553;PMS5003;40450;55.848;-3.572;2022-11-20T06:32:15;2;2;
54553;PMS5003;40450;55.848;-3.572;2022-11-20T06:34:45;4;4;
54553;PMS5003;40450;55.848;-3.572;2022-11-20T06:37:16;3;2;
54553;PMS5003;40450;55.848;-3.572;2022-11-20T06:39:46;3;3;
54553;PMS5003;40450;55.848;-3.572;2022-11-20T06:42:16;2;2;
54553;PMS5003;40450;55.848;-3.572;2022-11-20T06:44:47;4;4;
54553;PMS5003;40450;55.848;-3.572;2022-11-20T06:47:17;3;3;
54553;PMS5003;40450;55.848;-3.572;2022-11-20T06:49:48;2;2;
54553;PMS5003;40450;55.848;-3.572;2022-11-20T06:52:18;5;5;
54553;PMS5003;40450;55.848;-3.572;2022-11-20T06:54:48;4;2;
54553;PMS5003;40450;55.848;-3.572;2022-11-20T06:57:19;2;2;
54553;PMS5003;40450;55.848;-3.572;2022-11-20T06:59:49;2;2;
54553;PMS5003;40450;55.848;-3.572;2022-11-20T07:02:20;3;3;
54553;PMS5003;40450;55.848;-3.572;2022-11-20T07:04:50;3;3;
54553;PMS5003;40450;55.848;-3.572;2022-11-20T07:07:21;4;4;
54553;PMS5003;40450;55.848;-3.572;2022-11-20T07:09:51;3;3;
54553;PMS5003;40450;55.848;-3.572;2022-11-20T07:12:22;3;3;
54553;PMS5003;40450;55.848;-3.572;2022-11-20T07:14:52;3;3;
54553;PMS5003;40450;55.848;-3.572;2022-11-20T07:17:22;4;4;
54553;PMS5003;40450;55.848;-3.572;2022-11-20T07:19:53;5;4;
54553;PMS5003;40450;55.848;-3.572;2022-11-20T07:22:23;3;3;
54553;PMS5003;40450;55.848;-3.572;2022-11-20T07:24:54;2;2;
54553;PMS5003;40450;55.848;-3.572;2022-11-20T07:27:24;3;3;
54553;PMS5003;40450;55.848;-3.572;2022-11-20T07:29:55;3;3;
54553;PMS5003;40450;55.848;-3.572;2022-11-20T07:32:25;2;2;
54553;PMS5003;40450;55.848;-3.572;2022-11-20T07:34:55;4;4;
54553;PMS5003;40450;55.848;-3.572;2022-11-20T07:37:26;3;3;
54553;PMS5003;40450;55.848;-3.572;2022-11-20T07:39:56;5;5;
54553;PMS5003;40450;55.848;-3.572;2022-11-20T07:42:27;3;3;
54553;PMS5003;40450;55.848;-3.572;2022-11-20T07:44:57;3;2;
54553;PMS5003;40450;55.848;-3.572;2022-11-20T07:47:28;2;2;
54553;PMS5003;40450;55.848;-3.572;2022-11-20T07:49:58;3;3;
54553;PMS5003;40450;55.848;-3.572;2022-11-20T07:52:28;5;4;
54553;PMS5003;40450;55.848;-3.572;2022-11-20T07:54:58;3;3;
54553;PMS5003;40450;55.848;-3.572;2022-11-20T07:57:29;5;5;
54553;PMS5003;40450;55.848;-3.572;2022-11-20T07:59:59;3;3;
54553;PMS5003;40450;55.848;-3.572;2022-11-20T08:02:30;2;2;
54553;PMS5003;40450;55.848;-3.572;2022-11-20T08:05:00;3;3;
54553;PMS5003;40450;55.848;-3.572;2022-11-20T08:07:34;2;2;
54553;PMS5003;40450;55.848;-3.572;2022-11-20T08:10:02;6;4;
54553;PMS5003;40450;55.848;-3.572;2022-11-20T08:12:31;2;2;
54553;PMS5003;40450;55.848;-3.572;2022-11-20T08:15:03;2;2;
54553;PMS5003;40450;55.848;-3.572;2022-11-20T08:17:33;3;3;
54553;PMS5003;40450;55.848;-3.572;2022-11-20T08:20:03;3;1;
54553;PMS5003;40450;55.848;-3.572;2022-11-20T08:22:33;1;1;
54553;PMS5003;40450;55.848;-3.572;2022-11-20T08:25:04;0;0;
54553;PMS5003;40450;55.848;-3.572;2022-11-20T08:27:34;0;0;
54553;PMS5003;40450;55.848;-3.572;2022-11-20T08:30:05;0;0;
54553;PMS5003;40450;55.848;-3.572;2022-11-20T08:32:35;0;0;
54553;PMS5003;40450;55.848;-3.572;2022-11-20T08:35:05;0;0;
54553;PMS5003;40450;55.848;-3.572;2022-11-20T08:37:35;0;0;
54553;PMS5003;40450;55.848;-3.572;2022-11-20T08:40:06;0;0;
54553;PMS5003;40450;55.848;-3.572;2022-11-20T08:42:36;0;0;
54553;PMS5003;40450;55.848;-3.572;2022-11-20T08:45:07;0;0;
54553;PMS5003;40450;55.848;-3.572;2022-11-20T08:47:37;0;0;
54553;PMS5003;40450;55.848;-3.572;2022-11-20T08:50:08;0;0;
54553;PMS5003;40450;55.848;-3.572;2022-11-20T08:52:38;1;1;
54553;PMS5003;40450;55.848;-3.572;2022-11-20T08:55:08;0;0;
54553;PMS5003;40450;55.848;-3.572;2022-11-20T08:57:39;1;1;
54553;PMS5003;40450;55.848;-3.572;2022-11-20T09:00:10;1;1;
54553;PMS5003;40450;55.848;-3.572;2022-11-20T09:02:40;2;2;
54553;PMS5003;40450;55.848;-3.572;2022-11-20T09:05:10;2;2;
54553;PMS5003;40450;55.848;-3.572;2022-11-20T09:07:40;5;4;
54553;PMS5003;40450;55.848;-3.572;2022-11-20T09:10:11;2;2;
54553;PMS5003;40450;55.848;-3.572;2022-11-20T09:12:41;1;1;
54553;PMS5003;40450;55.848;-3.572;2022-11-20T09:15:11;2;2;
54553;PMS5003;40450;55.848;-3.572;2022-11-20T09:17:42;2;2;
54553;PMS5003;40450;55.848;-3.572;2022-11-20T09:20:13;4;2;
54553;PMS5003;40450;55.848;-3.572;2022-11-20T09:22:43;1;1;
54553;PMS5003;40450;55.848;-3.572;2022-11-20T09:25:13;1;1;
54553;PMS5003;40450;55.848;-3.572;2022-11-20T09:27:43;0;0;
54553;PMS5003;40450;55.848;-3.572;2022-11-20T09:30:14;3;3;
54553;PMS5003;40450;55.848;-3.572;2022-11-20T09:32:44;1;1;
54553;PMS5003;40450;55.848;-3.572;2022-11-20T09:35:15;0;0;
54553;PMS5003;40450;55.848;-3.572;2022-11-20T09:37:45;1;1;
54553;PMS5003;40450;55.848;-3.572;2022-11-20T09:40:18;0;0;
54553;PMS5003;40450;55.848;-3.572;2022-11-20T09:42:47;0;0;
54553;PMS5003;40450;55.848;-3.572;2022-11-20T09:45:20;0;0;
54553;PMS5003;40450;55.848;-3.572;2022-11-20T09:47:50;0;0;
54553;PMS5003;40450;55.848;-3.572;2022-11-20T09:50:22;0;0;
54553;PMS5003;40450;55.848;-3.572;2022-11-20T09:52:49;1;1;
54553;PMS5003;40450;55.848;-3.572;2022-11-20T09:55:18;0;0;
54553;PMS5003;40450;55.848;-3.572;2022-11-20T09:57:49;0;0;
54553;PMS5003;40450;55.848;-3.572;2022-11-20T10:00:19;0;0;
54553;PMS5003;40450;55.848;-3.572;2022-11-20T10:02:51;1;1;
54553;PMS5003;40450;55.848;-3.572;2022-11-20T10:05:21;1;1;
54553;PMS5003;40450;55.848;-3.572;2022-11-20T10:07:52;1;1;
54553;PMS5003;40450;55.848;-3.572;2022-11-20T10:10:29;1;1;
54553;PMS5003;40450;55.848;-3.572;2022-11-20T10:12:54;1;1;
54553;PMS5003;40450;55.848;-3.572;2022-11-20T10:15:25;0;0;
54553;PMS5003;40450;55.848;-3.572;2022-11-20T10:17:57;0;0;
54553;PMS5003;40450;55.848;-3.572;2022-11-20T10:20:24;1;1;
54553;PMS5003;40450;55.848;-3.572;2022-11-20T10:22:57;3;1;
54553;PMS5003;40450;55.848;-3.572;2022-11-20T10:25:23;1;1;
54553;PMS5003;40450;55.848;-3.572;2022-11-20T10:27:57;2;2;
54553;PMS5003;40450;55.848;-3.572;2022-11-20T10:30:24;1;1;
54553;PMS5003;40450;55.848;-3.572;2022-11-20T10:32:54;0;0;
54553;PMS5003;40450;55.848;-3.572;2022-11-20T10:35:26;0;0;
54553;PMS5003;40450;55.848;-3.572;2022-11-20T10:37:56;1;1;
54553;PMS5003;40450;55.848;-3.572;2022-11-20T10:40:28;0;0;
54553;PMS5003;40450;55.848;-3.572;2022-11-20T10:42:56;1;1;
54553;PMS5003;40450;55.848;-3.572;2022-11-20T10:45:31;1;1;
54553;PMS5003;40450;55.848;-3.572;2022-11-20T10:47:59;1;1;
54553;PMS5003;40450;55.848;-3.572;2022-11-20T10:50:27;1;0;
54553;PMS5003;40450;55.848;-3.572;2022-11-20T10:52:59;1;1;
54553;PMS5003;40450;55.848;-3.572;2022-11-20T10:55:30;1;1;
54553;PMS5003;40450;55.848;-3.572;2022-11-20T10:58:00;0;0;
54553;PMS5003;40450;55.848;-3.572;2022-11-20T11:00:30;0;0;
54553;PMS5003;40450;55.848;-3.572;2022-11-20T11:02:59;0;0;
54553;PMS5003;40450;55.848;-3.572;2022-11-20T11:05:33;0;0;
54553;PMS5003;40450;55.848;-3.572;2022-11-20T11:08:00;1;0;
54553;PMS5003;40450;55.848;-3.572;2022-11-20T11:10:32;1;0;
54553;PMS5003;40450;55.848;-3.572;2022-11-20T11:13:01;0;0;
54553;PMS5003;40450;55.848;-3.572;2022-11-20T11:15:36;2;2;
54553;PMS5003;40450;55.848;-3.572;2022-11-20T11:18:01;1;1;
54553;PMS5003;40450;55.848;-3.572;2022-11-20T11:20:31;1;1;
54553;PMS5003;40450;55.848;-3.572;2022-11-20T11:23:02;1;1;
54553;PMS5003;40450;55.848;-3.572;2022-11-20T11:25:33;0;0;
54553;PMS5003;40450;55.848;-3.572;2022-11-20T11:28:03;0;0;
54553;PMS5003;40450;55.848;-3.572;2022-11-20T11:33:05;9;9;
54553;PMS5003;40450;55.848;-3.572;2022-11-20T11:35:38;1;0;
54553;PMS5003;40450;55.848;-3.572;2022-11-20T11:38:06;0;0;
54553;PMS5003;40450;55.848;-3.572;2022-11-20T11:40:35;6;5;
54553;PMS5003;40450;55.848;-3.572;2022-11-20T11:43:06;2;2;
54553;PMS5003;40450;55.848;-3.572;2022-11-20T11:45:36;2;2;
54553;PMS5003;40450;55.848;-3.572;2022-11-20T11:48:07;1;1;
54553;PMS5003;40450;55.848;-3.572;2022-11-20T11:50:37;1;1;
54553;PMS5003;40450;55.848;-3.572;2022-11-20T11:53:08;3;3;
54553;PMS5003;40450;55.848;-3.572;2022-11-20T11:55:38;0;0;
54553;PMS5003;40450;55.848;-3.572;2022-11-20T11:58:11;0;0;
54553;PMS5003;40450;55.848;-3.572;2022-11-20T12:00:39;0;0;
54553;PMS5003;40450;55.848;-3.572;2022-11-20T12:03:10;1;1;
54553;PMS5003;40450;55.848;-3.572;2022-11-20T12:05:40;0;0;
54553;PMS5003;40450;55.848;-3.572;2022-11-20T12:08:12;0;0;
54553;PMS5003;40450;55.848;-3.572;2022-11-20T12:10:41;3;3;
54553;PMS5003;40450;55.848;-3.572;2022-11-20T12:13:14;22;21;
54553;PMS5003;40450;55.848;-3.572;2022-11-20T12:15:41;11;11;
54553;PMS5003;40450;55.848;-3.572;2022-11-20T12:18:14;7;6;
54553;PMS5003;40450;55.848;-3.572;2022-11-20T12:20:43;16;14;
54553;PMS5003;40450;55.848;-3.572;2022-11-20T12:23:14;15;15;
54553;PMS5003;40450;55.848;-3.572;2022-11-20T12:25:43;16;14;
54553;PMS5003;40450;55.848;-3.572;2022-11-20T12:30:47;5;4;
54553;PMS5003;40450;55.848;-3.572;2022-11-20T12:40:46;0;0;
54553;PMS5003;40450;55.848;-3.572;2022-11-20T12:43:16;1;1;
54553;PMS5003;40450;55.848;-3.572;2022-11-20T12:48:21;1;1;
54553;PMS5003;40450;55.848;-3.572;2022-11-20T12:50:49;1;0;
54553;PMS5003;40450;55.848;-3.572;2022-11-20T12:53:23;0;0;
54553;PMS5003;40450;55.848;-3.572;2022-11-20T12:55:49;4;3;
54553;PMS5003;40450;55.848;-3.572;2022-11-20T12:58:19;1;1;
54553;PMS5003;40450;55.848;-3.572;2022-11-20T13:00:51;1;1;
54553;PMS5003;40450;55.848;-3.572;2022-11-20T13:05:51;0;0;
54553;PMS5003;40450;55.848;-3.572;2022-11-20T13:08:20;1;1;
54553;PMS5003;40450;55.848;-3.572;2022-11-20T13:10:51;3;1;
54553;PMS5003;40450;55.848;-3.572;2022-11-20T13:13:22;2;2;
54553;PMS5003;40450;55.848;-3.572;2022-11-20T13:15:51;0;0;
54553;PMS5003;40450;55.848;-3.572;2022-11-20T13:18:21;1;1;
54553;PMS5003;40450;55.848;-3.572;2022-11-20T13:20:51;1;1;
54553;PMS5003;40450;55.848;-3.572;2022-11-20T13:23:23;0;0;
54553;PMS5003;40450;55.848;-3.572;2022-11-20T13:28:26;1;1;
54553;PMS5003;40450;55.848;-3.572;2022-11-20T13:30:53;2;2;
54553;PMS5003;40450;55.848;-3.572;2022-11-20T13:33:25;1;1;
54553;PMS5003;40450;55.848;-3.572;2022-11-20T13:35:55;3;1;
54553;PMS5003;40450;55.848;-3.572;2022-11-20T13:38:24;1;1;
54553;PMS5003;40450;55.848;-3.572;2022-11-20T13:40:55;2;2;
54553;PMS5003;40450;55.848;-3.572;2022-11-20T13:43:27;1;1;
54553;PMS5003;40450;55.848;-3.572;2022-11-20T13:45:56;0;0;
54553;PMS5003;40450;55.848;-3.572;2022-11-20T13:48:26;1;1;
54553;PMS5003;40450;55.848;-3.572;2022-11-20T13:50:59;0;0;
54553;PMS5003;40450;55.848;-3.572;2022-11-20T13:53:30;0;0;
54553;PMS5003;40450;55.848;-3.572;2022-11-20T13:55:59;0;0;
54553;PMS5003;40450;55.848;-3.572;2022-11-20T13:58:31;2;0;
54553;PMS5003;40450;55.848;-3.572;2022-11-20T14:00:58;1;1;
54553;PMS5003;40450;55.848;-3.572;2022-11-20T14:03:29;2;2;
54553;PMS5003;40450;55.848;-3.572;2022-11-20T14:05:59;1;1;
54553;PMS5003;40450;55.848;-3.572;2022-11-20T14:08:31;1;1;
54553;PMS5003;40450;55.848;-3.572;2022-11-20T14:11:03;2;2;
54553;PMS5003;40450;55.848;-3.572;2022-11-20T14:13:29;2;2;
54553;PMS5003;40450;55.848;-3.572;2022-11-20T14:16:00;6;6;
54553;PMS5003;40450;55.848;-3.572;2022-11-20T14:18:30;0;0;
54553;PMS5003;40450;55.848;-3.572;2022-11-20T14:21:00;2;1;
54553;PMS5003;40450;55.848;-3.572;2022-11-20T14:23:31;0;0;
54553;PMS5003;40450;55.848;-3.572;2022-11-20T14:26:02;1;1;
54553;PMS5003;40450;55.848;-3.572;2022-11-20T14:28:31;0;0;
54553;PMS5003;40450;55.848;-3.572;2022-11-20T14:31:01;7;2;
54553;PMS5003;40450;55.848;-3.572;2022-11-20T14:33:32;2;1;
54553;PMS5003;40450;55.848;-3.572;2022-11-20T14:36:03;2;2;
54553;PMS5003;40450;55.848;-3.572;2022-11-20T14:38:33;1;1;
54553;PMS5003;40450;55.848;-3.572;2022-11-20T14:41:07;1;1;
54553;PMS5003;40450;55.848;-3.572;2022-11-20T14:43:34;0;0;
54553;PMS5003;40450;55.848;-3.572;2022-11-20T14:46:05;2;2;
54553;PMS5003;40450;55.848;-3.572;2022-11-20T14:48:36;2;2;
54553;PMS5003;40450;55.848;-3.572;2022-11-20T14:51:05;3;1;
54553;PMS5003;40450;55.848;-3.572;2022-11-20T14:53:35;2;1;
54553;PMS5003;40450;55.848;-3.572;2022-11-20T14:56:05;0;0;
54553;PMS5003;40450;55.848;-3.572;2022-11-20T14:58:36;1;1;
54553;PMS5003;40450;55.848;-3.572;2022-11-20T15:01:07;2;0;
54553;PMS5003;40450;55.848;-3.572;2022-11-20T15:03:37;1;0;
54553;PMS5003;40450;55.848;-3.572;2022-11-20T15:06:09;1;1;
54553;PMS5003;40450;55.848;-3.572;2022-11-20T15:08:37;0;0;
54553;PMS5003;40450;55.848;-3.572;2022-11-20T15:13:38;4;4;
54553;PMS5003;40450;55.848;-3.572;2022-11-20T15:16:11;2;2;
54553;PMS5003;40450;55.848;-3.572;2022-11-20T15:18:39;8;6;
54553;PMS5003;40450;55.848;-3.572;2022-11-20T15:21:09;7;6;
54553;PMS5003;40450;55.848;-3.572;2022-11-20T15:23:39;5;5;
54553;PMS5003;40450;55.848;-3.572;2022-11-20T15:26:10;1;1;
54553;PMS5003;40450;55.848;-3.572;2022-11-20T15:28:40;2;1;
54553;PMS5003;40450;55.848;-3.572;2022-11-20T15:31:11;1;0;
54553;PMS5003;40450;55.848;-3.572;2022-11-20T15:33:41;1;1;
54553;PMS5003;40450;55.848;-3.572;2022-11-20T15:36:11;3;3;
54553;PMS5003;40450;55.848;-3.572;2022-11-20T15:38:41;3;3;
54553;PMS5003;40450;55.848;-3.572;2022-11-20T15:41:12;5;3;
54553;PMS5003;40450;55.848;-3.572;2022-11-20T15:43:42;3;3;
54553;PMS5003;40450;55.848;-3.572;2022-11-20T15:46:13;1;1;
54553;PMS5003;40450;55.848;-3.572;2022-11-20T15:48:43;1;1;
54553;PMS5003;40450;55.848;-3.572;2022-11-20T15:51:16;2;1;
54553;PMS5003;40450;55.848;-3.572;2022-11-20T15:53:44;2;2;
54553;PMS5003;40450;55.848;-3.572;2022-11-20T15:56:14;2;2;
54553;PMS5003;40450;55.848;-3.572;2022-11-20T15:58:45;4;2;
54553;PMS5003;40450;55.848;-3.572;2022-11-20T16:01:16;1;1;
54553;PMS5003;40450;55.848;-3.572;2022-11-20T16:03:45;1;1;
54553;PMS5003;40450;55.848;-3.572;2022-11-20T16:06:16;2;1;
54553;PMS5003;40450;55.848;-3.572;2022-11-20T16:08:46;4;4;
54553;PMS5003;40450;55.848;-3.572;2022-11-20T16:11:16;10;9;
54553;PMS5003;40450;55.848;-3.572;2022-11-20T16:13:46;6;4;
54553;PMS5003;40450;55.848;-3.572;2022-11-20T16:16:19;4;3;
54553;PMS5003;40450;55.848;-3.572;2022-11-20T16:18:48;4;3;
54553;PMS5003;40450;55.848;-3.572;2022-11-20T16:21:18;2;1;
54553;PMS5003;40450;55.848;-3.572;2022-11-20T16:23:49;2;2;
54553;PMS5003;40450;55.848;-3.572;2022-11-20T16:26:18;2;2;
54553;PMS5003;40450;55.848;-3.572;2022-11-20T16:28:49;3;3;
54553;PMS5003;40450;55.848;-3.572;2022-11-20T16:31:19;2;2;
54553;PMS5003;40450;55.848;-3.572;2022-11-20T16:33:50;2;2;
54553;PMS5003;40450;55.848;-3.572;2022-11-20T16:36:20;0;0;
54553;PMS5003;40450;55.848;-3.572;2022-11-20T16:38:51;2;2;
54553;PMS5003;40450;55.848;-3.572;2022-11-20T16:41:20;8;6;
54553;PMS5003;40450;55.848;-3.572;2022-11-20T16:43:51;9;9;
54553;PMS5003;40450;55.848;-3.572;2022-11-20T16:48:52;6;5;
54553;PMS5003;40450;55.848;-3.572;2022-11-20T16:51:21;3;3;
54553;PMS5003;40450;55.848;-3.572;2022-11-20T16:53:51;3;3;
54553;PMS5003;40450;55.848;-3.572;2022-11-20T16:56:22;9;8;
54553;PMS5003;40450;55.848;-3.572;2022-11-20T16:58:53;4;4;
54553;PMS5003;40450;55.848;-3.572;2022-11-20T17:01:23;2;2;
54553;PMS5003;40450;55.848;-3.572;2022-11-20T17:03:53;3;3;
54553;PMS5003;40450;55.848;-3.572;2022-11-20T17:06:24;5;3;
54553;PMS5003;40450;55.848;-3.572;2022-11-20T17:08:54;5;4;
54553;PMS5003;40450;55.848;-3.572;2022-11-20T17:11:24;6;4;
54553;PMS5003;40450;55.848;-3.572;2022-11-20T17:13:55;3;3;
54553;PMS5003;40450;55.848;-3.572;2022-11-20T17:16:25;2;2;
54553;PMS5003;40450;55.848;-3.572;2022-11-20T17:18:55;3;3;